createdAt,value
2019-01-27T15:27:51.704Z,78.83
2019-01-27T15:30:30.104Z,83.30
2019-01-27T15:32:59.964Z,85.38
2019-01-27T15:35:29.981Z,109.67
2019-01-27T15:37:59.732Z,120.00
2019-01-27T15:40:29.659Z,120.15
2019-01-27T15:42:59.442Z,134.00
2019-01-27T15:45:33.842Z,128.90
2019-01-27T15:48:03.617Z,117.28
2019-01-27T15:50:35.052Z,113.43
2019-01-27T15:53:05.899Z,116.45
2019-01-27T15:55:38.422Z,112.90
2019-01-27T15:58:09.334Z,115.80
2019-01-27T16:00:39.159Z,119.22
2019-01-27T16:03:09.985Z,121.17
2019-01-27T16:05:52.498Z,120.25
2019-01-27T16:08:22.512Z,119.75
2019-01-27T16:10:53.605Z,119.35
2019-01-27T16:13:24.128Z,115.90
2019-01-27T16:15:55.114Z,121.30
2019-01-27T16:18:25.000Z,119.45
2019-01-27T16:20:54.871Z,120.62
2019-01-27T16:23:32.304Z,126.18
2019-01-27T16:26:03.344Z,123.90
2019-01-27T16:28:34.474Z,125.30
2019-01-27T16:31:11.793Z,126.60
2019-01-27T16:33:46.008Z,122.40
2019-01-27T16:36:16.972Z,126.18
2019-01-27T16:38:47.149Z,127.90
2019-01-27T16:41:16.972Z,123.82
2019-01-27T16:43:46.747Z,124.90
2019-01-27T16:46:18.417Z,127.87
2019-01-27T16:48:48.193Z,119.45
2019-01-27T16:51:18.042Z,126.82
2019-01-27T16:53:47.836Z,127.45
2019-01-27T16:56:28.646Z,120.82
2019-01-27T16:58:59.523Z,117.45
2019-01-27T17:01:29.658Z,128.10
2019-01-27T17:03:59.433Z,132.00
2019-01-27T17:06:33.481Z,161.80
2019-01-27T17:09:05.871Z,128.87
2019-01-27T17:11:36.605Z,129.80
2019-01-27T17:14:06.481Z,126.90
2019-01-27T17:16:36.501Z,125.78
2019-01-27T17:19:06.517Z,123.22
2019-01-27T17:21:40.697Z,125.15
2019-01-27T17:24:10.570Z,123.82
2019-01-27T17:26:41.446Z,128.25
2019-01-27T17:31:56.770Z,121.55
2019-01-27T17:34:28.173Z,126.33
2019-01-27T17:36:58.681Z,130.47
2019-01-27T17:39:28.989Z,130.50
2019-01-27T17:41:58.952Z,134.87
2019-01-27T17:44:32.344Z,128.97
2019-01-27T17:47:02.333Z,136.47
2019-01-27T17:49:32.685Z,141.35
2019-01-27T17:52:02.801Z,144.20
2019-01-27T17:54:32.890Z,132.10
2019-01-27T17:57:04.383Z,145.43
2019-01-27T17:59:36.485Z,140.88
2019-01-27T18:02:17.180Z,141.45
2019-01-27T18:04:48.872Z,139.32
2019-01-27T18:07:20.389Z,144.13
2019-01-27T18:10:00.853Z,135.63
2019-01-27T18:12:32.588Z,138.28
2019-01-27T18:15:03.858Z,138.20
2019-01-27T18:17:35.053Z,146.80
2019-01-27T18:20:07.882Z,140.22
2019-01-27T18:22:38.110Z,144.20
2019-01-27T18:25:30.488Z,137.15
2019-01-27T18:28:25.146Z,156.15
2019-01-27T18:30:55.401Z,140.47
2019-01-27T18:33:25.388Z,135.50
2019-01-27T18:35:56.834Z,148.68
2019-01-27T18:38:26.977Z,135.03
2019-01-27T18:40:57.564Z,145.95
2019-01-27T18:43:27.608Z,142.77
2019-01-27T18:45:58.930Z,156.70
2019-01-27T18:48:32.037Z,142.20
2019-01-27T18:51:02.877Z,140.95
2019-01-27T18:53:47.048Z,139.18
2019-01-27T18:56:36.698Z,131.45
2019-01-27T18:59:24.744Z,130.93
2019-01-27T19:02:07.461Z,143.50
2019-01-27T19:04:39.110Z,132.65
2019-01-27T19:07:11.345Z,133.37
2019-01-27T19:09:57.010Z,129.15
2019-01-27T19:12:28.951Z,126.05
2019-01-27T19:15:30.379Z,125.58
2019-01-27T19:18:18.493Z,122.60
2019-01-27T19:20:50.441Z,122.25
2019-01-27T19:23:39.037Z,144.35
2019-01-27T19:26:10.792Z,131.55
2019-01-27T19:29:01.297Z,134.50
2019-01-27T19:31:32.852Z,133.35
2019-01-27T19:34:25.493Z,122.05
2019-01-27T19:36:57.987Z,129.42
2019-01-27T19:39:32.844Z,127.53
2019-01-27T19:42:07.520Z,129.95
2019-01-27T19:44:41.800Z,125.22
2019-01-27T19:47:13.394Z,122.90
2019-01-27T19:49:47.852Z,127.58
2019-01-27T19:52:19.572Z,125.42
2019-01-27T19:54:51.347Z,132.90
2019-01-27T19:57:23.310Z,133.95
2019-01-27T20:00:01.229Z,132.37
2019-01-27T20:02:36.432Z,239.85
2019-01-27T20:05:10.207Z,232.85
2019-01-27T20:07:41.793Z,144.35
2019-01-27T20:13:14.933Z,134.75
2019-01-27T20:15:54.104Z,133.22
2019-01-27T20:18:43.506Z,138.40
2019-01-27T20:21:15.180Z,134.25
2019-01-27T20:23:49.585Z,138.57
2019-01-27T20:26:36.315Z,137.60
2019-01-27T20:29:14.297Z,98.87
2019-01-27T20:31:57.934Z,39.98
2019-01-27T20:34:42.076Z,37.67
2019-01-27T20:37:21.515Z,35.28
2019-01-27T20:39:56.333Z,36.28
2019-01-27T20:42:33.942Z,33.48
